createdAt,value
2023-05-23T00:02:10.554Z,100102.25
2023-05-23T00:04:39.588Z,100111.16
2023-05-23T00:07:08.128Z,100104.66
2023-05-23T00:09:36.345Z,100115.31
2023-05-23T00:12:08.760Z,100116.28
2023-05-23T00:14:40.707Z,100119.56
2023-05-23T00:17:12.277Z,100119.25
2023-05-23T00:19:45.785Z,100114.09
2023-05-23T00:22:17.881Z,100114.16
2023-05-23T00:24:46.388Z,100114.19
2023-05-23T00:27:16.385Z,100114.22
2023-05-23T00:29:44.430Z,100118.19
2023-05-23T00:32:13.590Z,100107.16
2023-05-23T00:34:41.755Z,100108.88
2023-05-23T00:37:12.147Z,100125.66
2023-05-23T00:39:40.653Z,100119.88
2023-05-23T00:42:11.021Z,100115.69
2023-05-23T00:44:40.447Z,100111.16
2023-05-23T00:47:09.789Z,100118.16
2023-05-23T00:49:41.372Z,100132.25
2023-05-23T00:52:11.144Z,100133.88
2023-05-23T00:54:41.359Z,100126.97
2023-05-23T00:57:12.626Z,100131.84
2023-05-23T00:59:45.818Z,100128.88
2023-05-23T01:02:19.683Z,100127.03
2023-05-23T01:04:49.100Z,100130.66
2023-05-23T01:07:20.614Z,100143.28
2023-05-23T01:09:48.933Z,100141.06
2023-05-23T01:12:27.606Z,100152.38
2023-05-23T01:15:06.745Z,100153.19
2023-05-23T01:17:43.082Z,100150.97
2023-05-23T01:20:14.153Z,100145.22
2023-05-23T01:23:08.312Z,100155.94
2023-05-23T01:25:49.680Z,100151.50
2023-05-23T01:28:27.089Z,100147.94
2023-05-23T01:30:59.239Z,100145.53
2023-05-23T01:33:30.873Z,100134.53
2023-05-23T01:36:02.656Z,100145.28
2023-05-23T01:38:32.429Z,100146.06
2023-05-23T01:41:02.911Z,100142.53
2023-05-23T01:43:38.457Z,100145.84
2023-05-23T01:46:08.683Z,100142.84
2023-05-23T01:48:42.997Z,100149.69
2023-05-23T01:51:11.636Z,100131.78
2023-05-23T01:53:48.243Z,100156.78
2023-05-23T01:56:19.203Z,100162.56
2023-05-23T01:58:51.038Z,100149.59
2023-05-23T02:01:19.596Z,100158.94
2023-05-23T02:03:50.583Z,100146.81
2023-05-23T02:06:19.736Z,100167.13
2023-05-23T02:08:48.188Z,100173.13
2023-05-23T02:11:17.111Z,100183.06
2023-05-23T02:13:45.130Z,100188.03
2023-05-23T02:16:14.865Z,100188.25
2023-05-23T02:18:46.252Z,100183.13
2023-05-23T02:21:16.821Z,100180.66
2023-05-23T02:23:51.480Z,100187.50
2023-05-23T02:26:20.012Z,100157.84
2023-05-23T02:28:48.589Z,100187.56
2023-05-23T02:31:20.259Z,100191.41
2023-05-23T02:33:49.154Z,100183.69
2023-05-23T02:36:19.849Z,100191.69
2023-05-23T02:38:50.769Z,100181.25
2023-05-23T02:41:19.533Z,100182.06
2023-05-23T02:43:48.490Z,100193.84
2023-05-23T02:46:18.198Z,100202.13
2023-05-23T02:48:50.524Z,100204.84
2023-05-23T02:51:18.364Z,100196.91
2023-05-23T02:53:49.608Z,100200.75
2023-05-23T02:56:18.943Z,100202.38
2023-05-23T02:58:46.911Z,100188.09
2023-05-23T03:01:18.214Z,100205.69
2023-05-23T03:03:48.432Z,100206.75
2023-05-23T03:06:22.590Z,100201.03
2023-05-23T03:08:50.598Z,100207.06
2023-05-23T03:11:19.005Z,100208.13
2023-05-23T03:13:48.815Z,100206.16
2023-05-23T03:16:17.143Z,100204.78
2023-05-23T03:18:45.034Z,100207.25
2023-05-23T03:21:12.962Z,100206.13
2023-05-23T03:23:42.376Z,100199.72
2023-05-23T03:26:10.751Z,100209.31
2023-05-23T03:28:39.045Z,100222.47
2023-05-23T03:31:08.151Z,100225.50
2023-05-23T03:33:39.688Z,100225.50
2023-05-23T03:36:11.265Z,100232.63
2023-05-23T03:38:43.196Z,100226.34
2023-05-23T03:41:11.570Z,100223.00
2023-05-23T03:43:39.882Z,100226.56
2023-05-23T03:46:10.439Z,100227.66
2023-05-23T03:48:41.885Z,100239.69
2023-05-23T03:51:10.086Z,100229.56
2023-05-23T03:53:38.358Z,100235.28
2023-05-23T03:56:10.924Z,100235.28
2023-05-23T03:58:39.562Z,100247.28
2023-05-23T04:01:11.022Z,100257.50
2023-05-23T04:03:39.384Z,100250.44
2023-05-23T04:06:12.962Z,100240.69
2023-05-23T04:08:43.866Z,100263.25
2023-05-23T04:11:14.632Z,100265.75
2023-05-23T04:13:47.063Z,100260.72
2023-05-23T04:16:18.111Z,100271.94
2023-05-23T04:18:48.663Z,100277.94
2023-05-23T04:21:20.542Z,100283.09
2023-05-23T04:23:50.532Z,100276.91
2023-05-23T04:26:20.758Z,100267.19
2023-05-23T04:28:49.105Z,100285.97
2023-05-23T04:31:20.271Z,100285.34
2023-05-23T04:33:53.063Z,100278.78
2023-05-23T04:36:26.540Z,100291.47
2023-05-23T04:38:54.516Z,100301.56
2023-05-23T04:41:25.531Z,100296.19
2023-05-23T04:43:55.607Z,100303.91
2023-05-23T04:46:29.298Z,100294.66
2023-05-23T04:48:59.024Z,100294.84
2023-05-23T04:51:28.693Z,100300.88
2023-05-23T04:54:00.259Z,100311.03
2023-05-23T04:56:30.230Z,100319.53
2023-05-23T04:58:59.345Z,100311.81
2023-05-23T05:01:29.791Z,100304.63
2023-05-23T05:03:59.747Z,100320.91
2023-05-23T05:06:29.741Z,100318.28
2023-05-23T05:09:01.735Z,100315.00
2023-05-23T05:11:34.799Z,100326.03
2023-05-23T05:14:02.771Z,100324.63
2023-05-23T05:16:35.059Z,100321.69
2023-05-23T05:19:04.628Z,100334.22
2023-05-23T05:21:33.205Z,100328.28
2023-05-23T05:24:02.197Z,100332.00
2023-05-23T05:26:34.874Z,100330.28
2023-05-23T05:29:07.945Z,100337.22
2023-05-23T05:31:38.259Z,100311.78
2023-05-23T05:34:09.201Z,100354.13
2023-05-23T05:36:38.701Z,100344.16
2023-05-23T05:39:07.207Z,100349.38
2023-05-23T05:41:37.150Z,100346.53
2023-05-23T05:44:06.503Z,100348.94
2023-05-23T05:46:34.640Z,100346.50
2023-05-23T05:49:03.450Z,100353.97
2023-05-23T05:51:34.039Z,100348.31
2023-05-23T05:54:02.618Z,100357.50
2023-05-23T05:56:31.271Z,100370.16
2023-05-23T05:59:02.528Z,100386.16
2023-05-23T06:01:31.289Z,100370.34
2023-05-23T06:04:01.141Z,100384.66
2023-05-23T06:06:29.687Z,100368.63
2023-05-23T06:08:58.466Z,100372.25
2023-05-23T06:11:27.776Z,100399.94
2023-05-23T06:13:57.674Z,100395.72
2023-05-23T06:16:28.387Z,100398.72
2023-05-23T06:19:07.007Z,100398.44
2023-05-23T06:21:35.610Z,100395.41
2023-05-23T06:24:04.646Z,100388.50
2023-05-23T06:26:35.149Z,100387.53
2023-05-23T06:29:03.127Z,100394.13
2023-05-23T06:31:36.791Z,100386.16
2023-05-23T06:34:06.919Z,100392.09
2023-05-23T06:36:41.705Z,100372.78
2023-05-23T06:39:11.181Z,100397.53
2023-05-23T06:41:45.190Z,100381.34
2023-05-23T06:44:23.767Z,100386.94
2023-05-23T06:47:00.574Z,100388.56
2023-05-23T06:49:31.526Z,100390.78
2023-05-23T06:52:00.830Z,100389.69
2023-05-23T06:54:43.109Z,100390.00
2023-05-23T06:57:14.346Z,100383.66
2023-05-23T06:59:46.732Z,100373.31
2023-05-23T07:02:16.936Z,100363.16
2023-05-23T07:04:45.638Z,100370.63
2023-05-23T07:07:18.104Z,100369.22
2023-05-23T07:09:53.463Z,100371.72
2023-05-23T07:12:24.955Z,100377.22
2023-05-23T07:14:53.851Z,100372.94
2023-05-23T07:17:26.247Z,100381.59
2023-05-23T07:19:56.715Z,100376.13
2023-05-23T07:22:25.143Z,100387.97
2023-05-23T07:24:57.758Z,100392.63
2023-05-23T07:27:30.897Z,100389.03
2023-05-23T07:29:59.802Z,100397.03
2023-05-23T07:32:29.701Z,100370.59
2023-05-23T07:35:00.689Z,100394.78
2023-05-23T07:37:28.621Z,100387.91
2023-05-23T07:40:02.288Z,100385.72
2023-05-23T07:42:30.928Z,100396.44
2023-05-23T07:45:05.274Z,100393.91
2023-05-23T07:47:38.252Z,100402.16
2023-05-23T07:50:08.507Z,100399.50
2023-05-23T07:52:39.289Z,100397.47
2023-05-23T07:55:09.735Z,100405.19
2023-05-23T07:57:46.465Z,100405.78
2023-05-23T08:00:17.705Z,100397.16
2023-05-23T08:02:48.230Z,100398.84
2023-05-23T08:05:21.662Z,100407.09
2023-05-23T08:07:56.414Z,100405.38
2023-05-23T08:10:28.403Z,100396.41
2023-05-23T08:13:02.871Z,100397.22
2023-05-23T08:15:31.906Z,100400.28
2023-05-23T08:18:08.357Z,100402.38
2023-05-23T08:20:36.388Z,100399.03
2023-05-23T08:23:12.690Z,100393.41
2023-05-23T08:25:45.522Z,100407.25
2023-05-23T08:28:15.436Z,100410.03
2023-05-23T08:30:47.032Z,100407.97
2023-05-23T08:33:20.269Z,100392.31
2023-05-23T08:35:49.357Z,100399.53
2023-05-23T08:38:21.985Z,100410.78
2023-05-23T08:40:53.269Z,100412.31
2023-05-23T08:43:23.252Z,100408.22
2023-05-23T08:45:56.485Z,100421.84
2023-05-23T08:48:30.831Z,100414.53
2023-05-23T08:51:01.119Z,100410.16
2023-05-23T08:53:39.662Z,100413.78
2023-05-23T08:56:10.326Z,100409.78
2023-05-23T08:58:45.714Z,100409.03
2023-05-23T09:01:19.308Z,100411.78
2023-05-23T09:03:50.315Z,100410.00
2023-05-23T09:06:30.906Z,100404.69
2023-05-23T09:09:00.494Z,100411.31
2023-05-23T09:11:36.880Z,100411.97
2023-05-23T09:14:07.914Z,100413.97
2023-05-23T09:16:39.928Z,100404.00
2023-05-23T09:19:16.157Z,100411.97
2023-05-23T09:21:47.908Z,100426.22
2023-05-23T09:24:16.560Z,100421.28
2023-05-23T09:26:50.905Z,100428.88
2023-05-23T09:29:23.991Z,100425.34
2023-05-23T09:31:56.585Z,100432.31
2023-05-23T09:34:28.594Z,100432.69
2023-05-23T09:36:57.019Z,100423.72
2023-05-23T09:39:26.877Z,100423.19
2023-05-23T09:42:01.233Z,100427.28
2023-05-23T09:44:31.402Z,100424.78
2023-05-23T09:47:07.665Z,100427.53
2023-05-23T09:49:41.086Z,100424.72
2023-05-23T09:52:11.527Z,100430.63
2023-05-23T09:54:41.776Z,100428.91
2023-05-23T09:57:12.334Z,100431.81
2023-05-23T09:59:42.838Z,100427.19
2023-05-23T10:02:17.225Z,100432.41
2023-05-23T10:04:53.004Z,100389.84
2023-05-23T10:07:27.756Z,100419.75
2023-05-23T10:12:53.034Z,100429.28
2023-05-23T10:15:26.281Z,100441.81
2023-05-23T10:18:08.852Z,100431.19
2023-05-23T10:20:44.859Z,100445.38
2023-05-23T10:23:25.724Z,100440.47
2023-05-23T10:25:54.431Z,100450.22
2023-05-23T10:28:27.256Z,100458.50
2023-05-23T10:30:57.411Z,100451.59
2023-05-23T10:33:26.449Z,100451.28
2023-05-23T10:36:05.369Z,100451.41
2023-05-23T10:38:40.143Z,100455.47
2023-05-23T10:41:13.712Z,100452.84
2023-05-23T10:43:47.428Z,100452.97
2023-05-23T10:46:16.834Z,100437.91
2023-05-23T10:48:49.723Z,100464.59
2023-05-23T10:51:20.469Z,100454.84
2023-05-23T10:53:58.234Z,100451.84
2023-05-23T10:56:29.749Z,100452.34
2023-05-23T10:58:59.435Z,100465.28
2023-05-23T11:01:29.667Z,100459.47
2023-05-23T11:03:59.361Z,100460.25
2023-05-23T11:06:35.861Z,100467.63
2023-05-23T11:09:09.294Z,100468.53
2023-05-23T11:14:55.995Z,100480.16
2023-05-23T11:17:35.962Z,100474.75
2023-05-23T11:20:08.383Z,100471.44
2023-05-23T11:22:40.023Z,100462.06
2023-05-23T11:25:10.597Z,100465.72
2023-05-23T11:27:42.453Z,100474.59
2023-05-23T11:30:13.819Z,100474.91
2023-05-23T11:32:43.328Z,100474.38
2023-05-23T11:35:13.123Z,100479.91
2023-05-23T11:37:45.936Z,100469.69
2023-05-23T11:40:29.439Z,100474.84
2023-05-23T11:43:16.681Z,100467.50
2023-05-23T11:45:51.900Z,100448.69
2023-05-23T11:48:21.416Z,100472.50
2023-05-23T11:50:54.020Z,100473.66
2023-05-23T11:53:30.136Z,100460.22
2023-05-23T11:56:00.572Z,100480.00
2023-05-23T11:58:33.769Z,100479.25
2023-05-23T12:01:03.498Z,100478.75
2023-05-23T12:03:32.064Z,100469.22
2023-05-23T12:06:01.196Z,100473.28
2023-05-23T12:08:33.706Z,100478.25
2023-05-23T12:11:03.708Z,100467.72
2023-05-23T12:13:32.595Z,100474.69
2023-05-23T12:16:02.541Z,100475.69
2023-05-23T12:18:32.975Z,100465.81
2023-05-23T12:21:03.170Z,100480.78
2023-05-23T12:23:36.420Z,100479.50
2023-05-23T12:26:08.025Z,100463.59
2023-05-23T12:28:38.555Z,100474.78
2023-05-23T12:31:12.350Z,100481.59
2023-05-23T12:33:43.971Z,100476.41
2023-05-23T12:36:12.719Z,100459.63
2023-05-23T12:38:45.846Z,100478.50
2023-05-23T12:41:19.772Z,100477.72
2023-05-23T12:43:54.324Z,100476.41
2023-05-23T12:46:25.281Z,100458.09
2023-05-23T12:48:58.387Z,100486.75
2023-05-23T12:51:29.466Z,100489.00
2023-05-23T12:54:06.363Z,100486.84
2023-05-23T12:56:34.822Z,100491.00
2023-05-23T12:59:06.799Z,100491.44
2023-05-23T13:01:37.915Z,100498.56
2023-05-23T13:04:08.021Z,100494.25
2023-05-23T13:06:41.487Z,100486.09
2023-05-23T13:09:11.459Z,100498.56
2023-05-23T13:11:41.729Z,100505.22
2023-05-23T13:14:13.712Z,100491.41
2023-05-23T13:16:42.052Z,100499.22
2023-05-23T13:19:21.995Z,100520.44
2023-05-23T13:21:53.109Z,100505.84
2023-05-23T13:24:27.705Z,100504.19
2023-05-23T13:26:55.822Z,100496.72
2023-05-23T13:29:23.976Z,100496.66
2023-05-23T13:31:53.814Z,100490.06
2023-05-23T13:34:25.523Z,100497.16
2023-05-23T13:36:53.495Z,100498.91
2023-05-23T13:39:24.840Z,100498.91
2023-05-23T13:41:54.138Z,100509.44
2023-05-23T13:44:22.397Z,100497.66
2023-05-23T13:46:51.227Z,100505.59
2023-05-23T13:49:23.761Z,100497.66
2023-05-23T13:51:51.654Z,100501.03
2023-05-23T13:54:23.641Z,100494.78
2023-05-23T13:56:52.268Z,100485.38
2023-05-23T13:59:21.624Z,100507.94
2023-05-23T14:01:50.135Z,100492.44
2023-05-23T14:04:18.217Z,100502.91
2023-05-23T14:06:46.688Z,100502.84
2023-05-23T14:09:16.136Z,100492.50
2023-05-23T14:11:46.311Z,100492.50
2023-05-23T14:14:14.886Z,100498.56
2023-05-23T14:16:43.343Z,100492.81
2023-05-23T14:19:12.467Z,100494.81
2023-05-23T14:21:44.888Z,100489.41
2023-05-23T14:24:14.281Z,100498.06
2023-05-23T14:26:45.112Z,100510.56
2023-05-23T14:29:18.817Z,100514.25
2023-05-23T14:31:52.919Z,100499.16
2023-05-23T14:34:21.437Z,100505.34
2023-05-23T14:36:52.235Z,100506.00
2023-05-23T14:39:20.339Z,100498.50
2023-05-23T14:41:52.205Z,100515.91
2023-05-23T14:44:33.761Z,100535.22
2023-05-23T14:47:04.992Z,100527.50
2023-05-23T14:49:33.754Z,100535.00
2023-05-23T14:52:04.522Z,100546.03
2023-05-23T14:54:33.136Z,100529.50
2023-05-23T14:57:01.505Z,100531.13
2023-05-23T14:59:31.968Z,100539.19
2023-05-23T15:02:12.626Z,100530.56
2023-05-23T15:04:50.108Z,100533.28
2023-05-23T15:07:25.961Z,100511.34
2023-05-23T15:09:55.018Z,100536.94
2023-05-23T15:12:24.840Z,100532.00
2023-05-23T15:15:03.057Z,100532.00
2023-05-23T15:17:37.954Z,100546.00
2023-05-23T15:22:39.864Z,100548.00
2023-05-23T15:25:14.395Z,100544.13
2023-05-23T15:27:46.240Z,100547.41
2023-05-23T15:30:19.261Z,100529.25
2023-05-23T15:32:57.836Z,100546.03
2023-05-23T15:35:27.607Z,100545.78
2023-05-23T15:37:56.549Z,100556.50
2023-05-23T15:40:42.878Z,100515.41
2023-05-23T15:43:16.728Z,100551.00
2023-05-23T15:45:47.318Z,100555.66
2023-05-23T15:48:17.944Z,100519.50
2023-05-23T15:50:47.496Z,100494.56
2023-05-23T15:53:16.008Z,100542.81
2023-05-23T15:55:45.901Z,100530.41
2023-05-23T15:58:20.711Z,100534.88
2023-05-23T16:00:53.310Z,100538.06
2023-05-23T16:03:22.780Z,100548.97
2023-05-23T16:05:53.048Z,100562.66
2023-05-23T16:08:21.755Z,100554.34
2023-05-23T16:10:51.800Z,100546.06
2023-05-23T16:13:20.936Z,100577.38
2023-05-23T16:15:55.403Z,100559.19
2023-05-23T16:18:24.167Z,100569.34
2023-05-23T16:20:57.103Z,100561.91
2023-05-23T16:23:29.338Z,100565.47
2023-05-23T16:26:01.651Z,100553.28
2023-05-23T16:28:29.588Z,100568.53
2023-05-23T16:31:14.479Z,100572.63
2023-05-23T16:33:44.340Z,100555.94
2023-05-23T16:36:13.581Z,100565.81
2023-05-23T16:38:43.346Z,100584.75
2023-05-23T16:41:12.141Z,100584.47
2023-05-23T16:43:40.439Z,100574.03
2023-05-23T16:46:10.323Z,100578.56
2023-05-23T16:48:44.105Z,100576.97
2023-05-23T16:51:14.952Z,100571.88
2023-05-23T16:53:42.935Z,100582.53
2023-05-23T16:56:13.022Z,100584.59
2023-05-23T16:58:41.731Z,100586.38
2023-05-23T17:01:13.965Z,100584.31
2023-05-23T17:03:50.277Z,100599.81
2023-05-23T17:06:21.635Z,100565.53
2023-05-23T17:08:49.530Z,100593.00
2023-05-23T17:11:18.234Z,100574.50
2023-05-23T17:13:47.051Z,100620.00
2023-05-23T17:16:20.466Z,100583.06
2023-05-23T17:18:52.264Z,100596.06
2023-05-23T17:21:24.009Z,100589.66
2023-05-23T17:23:56.305Z,100599.16
2023-05-23T17:26:27.058Z,100601.78
2023-05-23T17:28:58.077Z,100576.78
2023-05-23T17:31:30.729Z,100604.66
2023-05-23T17:34:00.686Z,100588.31
2023-05-23T17:36:35.185Z,100536.75
2023-05-23T17:39:04.140Z,100567.31
2023-05-23T17:41:33.327Z,100615.81
2023-05-23T17:44:02.157Z,100614.72
2023-05-23T17:46:37.906Z,100620.00
2023-05-23T17:49:10.012Z,100618.31
2023-05-23T17:51:39.935Z,100622.34
2023-05-23T17:54:09.394Z,100609.59
2023-05-23T17:56:38.134Z,100628.66
2023-05-23T17:59:07.351Z,100633.00
2023-05-23T18:01:39.521Z,100642.34
2023-05-23T18:04:09.331Z,100639.41
2023-05-23T18:06:47.002Z,100648.28
2023-05-23T18:09:17.487Z,100642.06
2023-05-23T18:11:46.639Z,100655.78
2023-05-23T18:14:16.696Z,100660.97
2023-05-23T18:16:48.264Z,100650.78
2023-05-23T18:19:19.276Z,100657.13
2023-05-23T18:21:52.864Z,100631.72
2023-05-23T18:24:22.278Z,100648.06
2023-05-23T18:26:55.058Z,100648.19
2023-05-23T18:29:25.538Z,100658.63
2023-05-23T18:31:54.990Z,100667.53
2023-05-23T18:34:23.339Z,100658.41
2023-05-23T18:36:59.809Z,100631.38
2023-05-23T18:39:28.027Z,100654.28
2023-05-23T18:41:57.727Z,100620.03
2023-05-23T18:44:28.332Z,100672.22
2023-05-23T18:46:59.399Z,100675.16
2023-05-23T18:49:31.202Z,100670.69
2023-05-23T18:51:59.495Z,100670.50
2023-05-23T18:54:28.519Z,100669.25
2023-05-23T18:56:57.990Z,100679.47
2023-05-23T18:59:27.875Z,100670.91
2023-05-23T19:02:03.101Z,100681.41
2023-05-23T19:04:40.939Z,100682.94
2023-05-23T19:07:10.010Z,100684.28
2023-05-23T19:09:39.468Z,100700.59
2023-05-23T19:12:10.873Z,100628.13
2023-05-23T19:14:39.560Z,100676.81
2023-05-23T19:17:18.030Z,100699.56
2023-05-23T19:19:46.620Z,100702.16
2023-05-23T19:22:16.161Z,100696.94
2023-05-23T19:24:46.432Z,100695.25
2023-05-23T19:27:17.050Z,100692.31
2023-05-23T19:29:45.734Z,100708.56
2023-05-23T19:32:18.661Z,100710.09
2023-05-23T19:34:47.927Z,100706.81
2023-05-23T19:37:24.036Z,100698.22
2023-05-23T19:39:57.707Z,100709.66
2023-05-23T19:42:29.303Z,100715.84
2023-05-23T19:44:58.240Z,100709.78
2023-05-23T19:47:31.051Z,100682.44
2023-05-23T19:49:59.436Z,100716.31
2023-05-23T19:52:30.178Z,100717.25
2023-05-23T19:55:03.861Z,100724.03
2023-05-23T19:57:33.971Z,100728.19
2023-05-23T20:00:05.389Z,100728.66
2023-05-23T20:02:40.043Z,100731.63
2023-05-23T20:05:12.015Z,100735.44
2023-05-23T20:07:42.467Z,100725.81
2023-05-23T20:10:10.924Z,100720.72
2023-05-23T20:12:43.757Z,100741.38
2023-05-23T20:15:14.575Z,100747.44
2023-05-23T20:17:46.695Z,100750.88
2023-05-23T20:20:14.832Z,100752.81
2023-05-23T20:22:46.023Z,100745.19
2023-05-23T20:25:14.117Z,100747.56
2023-05-23T20:27:43.101Z,100744.81
2023-05-23T20:30:12.287Z,100749.59
2023-05-23T20:32:43.044Z,100747.69
2023-05-23T20:35:13.076Z,100750.03
2023-05-23T20:37:44.215Z,100710.81
2023-05-23T20:40:14.509Z,100752.19
2023-05-23T20:42:44.993Z,100758.34
2023-05-23T20:45:13.933Z,100754.66
2023-05-23T20:47:43.847Z,100757.50
2023-05-23T20:50:14.964Z,100748.31
2023-05-23T20:52:43.727Z,100756.84
2023-05-23T20:55:15.903Z,100737.72
2023-05-23T20:57:44.593Z,100763.75
2023-05-23T21:00:17.675Z,100757.47
2023-05-23T21:02:57.917Z,100743.44
2023-05-23T21:05:29.880Z,100777.13
2023-05-23T21:08:13.127Z,100770.00
2023-05-23T21:10:41.674Z,100771.84
2023-05-23T21:13:10.009Z,100766.66
2023-05-23T21:15:38.651Z,100736.78
2023-05-23T21:18:10.543Z,100773.72
2023-05-23T21:20:41.641Z,100755.22
2023-05-23T21:23:13.225Z,100779.19
2023-05-23T21:25:42.058Z,100784.69
2023-05-23T21:28:12.581Z,100783.38
2023-05-23T21:30:43.886Z,100786.53
2023-05-23T21:33:12.972Z,100787.50
2023-05-23T21:35:45.439Z,100801.16
2023-05-23T21:38:13.754Z,100808.13
2023-05-23T21:40:43.696Z,100806.84
2023-05-23T21:43:11.875Z,100809.41
2023-05-23T21:45:40.068Z,100798.88
2023-05-23T21:48:15.235Z,100814.56
2023-05-23T21:50:47.873Z,100804.78
2023-05-23T21:53:18.542Z,100811.25
2023-05-23T21:55:54.849Z,100818.72
2023-05-23T21:58:28.326Z,100824.84
2023-05-23T22:01:18.736Z,100824.84
2023-05-23T22:07:16.916Z,100822.13
2023-05-23T22:12:32.620Z,100838.50
2023-05-23T22:15:03.069Z,100831.19
2023-05-23T22:17:34.381Z,100821.47
2023-05-23T22:20:05.619Z,100825.03
2023-05-23T22:22:34.238Z,100827.28
2023-05-23T22:25:07.056Z,100828.69
2023-05-23T22:27:36.668Z,100823.31
2023-05-23T22:30:06.549Z,100825.81
2023-05-23T22:32:34.775Z,100835.38
2023-05-23T22:35:08.353Z,100827.88
2023-05-23T22:37:38.085Z,100827.88
2023-05-23T22:40:11.263Z,100832.66
2023-05-23T22:45:39.433Z,100821.03
2023-05-23T22:48:09.785Z,100840.44
2023-05-23T22:50:45.158Z,100836.66
2023-05-23T22:53:16.830Z,100834.13
2023-05-23T22:55:47.069Z,100825.22
2023-05-23T22:58:17.739Z,100824.44
2023-05-23T23:00:46.329Z,100838.91
2023-05-23T23:03:18.953Z,100814.28
2023-05-23T23:05:55.519Z,100832.44
2023-05-23T23:08:24.495Z,100831.88
2023-05-23T23:10:57.657Z,100833.75
2023-05-23T23:13:31.113Z,100838.41
2023-05-23T23:16:01.972Z,100833.69
2023-05-23T23:18:30.672Z,100846.00
2023-05-23T23:21:01.349Z,100842.44
2023-05-23T23:23:37.707Z,100827.44
2023-05-23T23:26:10.300Z,100834.53
2023-05-23T23:28:43.595Z,100840.66
2023-05-23T23:31:19.321Z,100842.09
2023-05-23T23:33:47.855Z,100835.47
2023-05-23T23:36:16.335Z,100844.88
2023-05-23T23:38:50.651Z,100830.91
2023-05-23T23:41:22.466Z,100844.72
2023-05-23T23:43:54.838Z,100830.31
2023-05-23T23:46:50.906Z,100838.41
2023-05-23T23:49:20.569Z,100842.41
2023-05-23T23:51:53.662Z,100846.84
2023-05-23T23:54:21.561Z,100836.81
2023-05-23T23:56:53.897Z,100837.88
2023-05-23T23:59:22.059Z,100818.22
